Ladore — HBY4456 — position and weather

sailwx.info

Track history (hours):
 
Tides and Currents Weather Stations Pressure Air Temp Water Temp Dewpoint Dewpoint Depression Visibility Wind Speed Wind Dir Waves Ship Positions

Ladore

Last reported at 2014-Jul-12 16:17 UTC. Time now 2014-Jul-24 16:58 UTC.
Position N 40°09' E 003°04'.
Warning: this ship's position is 12 days out of date.

Length 17 m.

Type: Sailing vessel. MMSI: 269102720.

Date/timePositionNaut miles runAvg speedWind from/ knotsBaromVisibWave heightAir tempDewpointWater temp
2014-Jul-12 16:17N 40°09' E 003°04'5 7.1
2014-Jul-12 15:33N 40°13' E 003°00'8 7.8
2014-Jul-12 14:33N 40°20' E 002°55'7 7.0
2014-Jul-12 13:33N 40°26' E 002°50'8 8.2
2014-Jul-12 12:33N 40°32' E 002°44'7 6.6
2014-Jul-12 11:33N 40°38' E 002°39'7 7.1
2014-Jul-12 10:33N 40°44' E 002°34'7 6.9
2014-Jul-12 09:28N 40°50' E 002°28'7 7.3
2014-Jul-12 08:32N 40°56' E 002°24'29 0.7
2014-Jul-10 13:30N 41°15' E 001°55'  
Track history (hours):
 
Tides and Currents Weather Stations Pressure Air Temp Water Temp Dewpoint Dewpoint Depression Visibility Wind Speed Wind Dir Waves Ship Positions

Ladore

Last reported at 2014-Jul-12 16:17 UTC. Time now 2014-Jul-24 16:58 UTC.
Position N 40°09' E 003°04'.
Warning: this ship's position is 12 days out of date.

Length 17 m.

Type: Sailing vessel. MMSI: 269102720.

Date/timePositionNaut miles runAvg speedWind from/ knotsBaromVisibWave heightAir tempDewpointWater temp
2014-Jul-12 16:17N 40°09' E 003°04'5 7.1
2014-Jul-12 15:33N 40°13' E 003°00'8 7.8
2014-Jul-12 14:33N 40°20' E 002°55'7 7.0
2014-Jul-12 13:33N 40°26' E 002°50'8 8.2
2014-Jul-12 12:33N 40°32' E 002°44'7 6.6
2014-Jul-12 11:33N 40°38' E 002°39'7 7.1
2014-Jul-12 10:33N 40°44' E 002°34'7 6.9
2014-Jul-12 09:28N 40°50' E 002°28'7 7.3
2014-Jul-12 08:32N 40°56' E 002°24'29 0.7
2014-Jul-10 13:30N 41°15' E 001°55'  

Dump ship's entire track history